Time;durP1;ratioP1;P1;durP2;ratioP2;P2;SDS_P1;SDS_P2;PMS_P1;PMS_P2;Temp;Humidity;BMP_temperature;BMP_pressure;BME280_temperature;BME280_humidity;BME280_pressure;Samples;Min_cycle;Max_cycle;Signal;HPM_P1;HPM_P2
2024/01/23 00:00:46;;;;;;;5.43;1.83;;;4.00;99.90;;;;;;5007278;28;20176;-58
2024/01/23 00:03:11;;;;;;;2.30;1.60;;;4.00;99.90;;;;;;5009081;28;20200;-59
2024/01/23 00:05:37;;;;;;;6.13;1.90;;;4.00;99.90;;;;;;5003974;28;21810;-57
2024/01/23 00:08:03;;;;;;;3.07;1.73;;;4.00;99.90;;;;;;5005032;28;20219;-58
2024/01/23 00:10:29;;;;;;;3.93;1.43;;;4.00;99.90;;;;;;5007871;28;20182;-58
2024/01/23 00:12:55;;;;;;;3.37;1.57;;;4.00;99.90;;;;;;5007195;28;20821;-58
2024/01/23 00:15:21;;;;;;;1.30;1.20;;;4.10;99.90;;;;;;5003077;28;20180;-59
2024/01/23 00:17:46;;;;;;;1.60;1.23;;;4.10;99.90;;;;;;5007267;28;20477;-58
2024/01/23 00:20:12;;;;;;;3.87;1.30;;;4.10;99.90;;;;;;5003371;28;20179;-58
2024/01/23 00:22:38;;;;;;;1.93;1.33;;;4.10;99.90;;;;;;5009752;28;20192;-58
2024/01/23 00:25:04;;;;;;;5.30;1.60;;;4.20;99.90;;;;;;5008198;28;20598;-58
2024/01/23 00:27:30;;;;;;;1.67;1.20;;;4.20;99.90;;;;;;5005065;28;20315;-58
2024/01/23 00:29:55;;;;;;;1.40;1.30;;;4.20;99.90;;;;;;5006252;28;20712;-59
2024/01/23 00:32:21;;;;;;;3.00;1.40;;;4.20;99.90;;;;;;5005843;28;20228;-58
2024/01/23 00:34:46;;;;;;;5.20;1.37;;;4.20;99.90;;;;;;5007777;28;20200;-58
2024/01/23 00:37:12;;;;;;;3.33;1.40;;;4.20;99.90;;;;;;5003666;28;20662;-58
2024/01/23 00:39:38;;;;;;;1.57;1.47;;;4.10;99.90;;;;;;5006343;28;20169;-58
2024/01/23 00:42:10;;;;;;;3.33;1.60;;;4.10;99.90;;;;;;5009192;28;20190;-58
2024/01/23 00:44:36;;;;;;;2.03;1.50;;;4.10;99.90;;;;;;5008306;28;20478;-58
2024/01/23 00:47:01;;;;;;;3.77;1.47;;;4.10;99.90;;;;;;5004750;28;20797;-58
2024/01/23 00:49:27;;;;;;;4.47;1.40;;;4.10;99.90;;;;;;5003461;28;20180;-57
2024/01/23 00:51:52;;;;;;;6.43;1.30;;;4.10;99.90;;;;;;5004066;28;20192;-58
2024/01/23 00:54:18;;;;;;;2.77;1.50;;;4.00;99.90;;;;;;5008669;28;20195;-58
2024/01/23 00:56:43;;;;;;;4.77;1.77;;;4.00;99.90;;;;;;5007084;28;20576;-57
2024/01/23 00:59:12;;;;;;;7.20;1.47;;;4.00;99.90;;;;;;5005965;28;20187;-58
2024/01/23 01:01:38;;;;;;;3.53;1.20;;;4.00;99.90;;;;;;5005995;28;20196;-58
2024/01/23 01:04:03;;;;;;;3.90;2.03;;;4.00;99.90;;;;;;5005239;28;20940;-57
2024/01/23 01:06:29;;;;;;;3.63;1.53;;;4.00;99.90;;;;;;5004015;28;20910;-58
2024/01/23 01:08:55;;;;;;;1.90;1.23;;;4.00;99.90;;;;;;5003903;28;20180;-58
2024/01/23 01:11:21;;;;;;;4.20;1.27;;;4.00;99.90;;;;;;5005461;28;20212;-58
2024/01/23 01:13:46;;;;;;;2.80;1.70;;;4.00;99.90;;;;;;5004514;28;20235;-59
2024/01/23 01:16:12;;;;;;;2.20;1.37;;;3.90;99.90;;;;;;5004930;28;20181;-58
2024/01/23 01:18:40;;;;;;;6.07;1.93;;;3.80;99.90;;;;;;5003164;28;20184;-59
2024/01/23 01:21:07;;;;;;;3.90;1.80;;;3.80;99.90;;;;;;5003804;28;20181;-57
2024/01/23 01:23:33;;;;;;;6.03;2.30;;;3.80;99.90;;;;;;5004617;28;20543;-58
2024/01/23 01:25:59;;;;;;;5.73;1.70;;;3.80;99.90;;;;;;5005424;28;20890;-58
2024/01/23 01:28:25;;;;;;;3.17;1.70;;;3.80;99.90;;;;;;5006398;28;20510;-58
2024/01/23 01:30:50;;;;;;;5.90;2.23;;;3.80;99.90;;;;;;5004201;28;20184;-57
2024/01/23 01:33:17;;;;;;;3.77;1.67;;;3.80;99.90;;;;;;5006749;28;20287;-58
2024/01/23 01:35:42;;;;;;;5.67;2.10;;;3.70;99.90;;;;;;5007089;28;20689;-58
2024/01/23 01:38:08;;;;;;;3.53;1.57;;;3.70;99.90;;;;;;5002409;28;20417;-58
2024/01/23 01:40:33;;;;;;;5.90;1.87;;;3.60;99.90;;;;;;5003981;28;20180;-58
2024/01/23 01:43:00;;;;;;;2.70;1.80;;;3.60;99.90;;;;;;4998805;28;20624;-59
2024/01/23 01:45:25;;;;;;;1.70;1.60;;;3.50;99.90;;;;;;5005720;28;20180;-58
2024/01/23 01:47:52;;;;;;;9.23;1.57;;;3.50;99.90;;;;;;5006647;28;20422;-59
2024/01/23 01:50:19;;;;;;;5.70;1.73;;;3.50;99.90;;;;;;5007180;28;20661;-58
2024/01/23 01:52:45;;;;;;;3.07;1.73;;;3.50;99.90;;;;;;5004878;28;20477;-59
2024/01/23 01:55:11;;;;;;;3.63;1.60;;;3.50;99.90;;;;;;5006474;28;20426;-58
2024/01/23 01:57:38;;;;;;;4.43;1.60;;;3.40;99.90;;;;;;5003790;28;20700;-58
2024/01/23 02:00:06;;;;;;;13.63;1.90;;;3.40;99.90;;;;;;5002396;28;20471;-58
2024/01/23 02:02:32;;;;;;;5.90;1.60;;;3.50;99.90;;;;;;5004561;28;20430;-59
2024/01/23 02:04:58;;;;;;;3.47;1.50;;;3.50;99.90;;;;;;5016953;28;20444;-58
2024/01/23 02:07:23;;;;;;;4.37;1.53;;;3.50;99.90;;;;;;5006286;28;20420;-58
2024/01/23 02:09:49;;;;;;;6.90;1.93;;;3.50;99.90;;;;;;5007737;28;20203;-58
2024/01/23 02:12:15;;;;;;;4.87;1.63;;;3.50;99.90;;;;;;5001644;28;20205;-58
2024/01/23 02:14:41;;;;;;;2.10;2.00;;;3.40;99.90;;;;;;4998485;28;20565;-59
2024/01/23 02:17:07;;;;;;;1.53;1.40;;;3.40;99.90;;;;;;5003672;28;20208;-60
2024/01/23 02:19:33;;;;;;;4.83;1.50;;;3.40;99.90;;;;;;5005851;28;20447;-58
2024/01/23 02:21:58;;;;;;;1.30;1.20;;;3.40;99.90;;;;;;5002906;28;20643;-59
2024/01/23 02:24:24;;;;;;;5.77;1.73;;;3.40;99.90;;;;;;5001914;28;20207;-58
2024/01/23 02:26:49;;;;;;;6.63;1.60;;;3.40;99.90;;;;;;5001515;28;20234;-57
2024/01/23 02:29:16;;;;;;;4.70;1.70;;;3.40;99.90;;;;;;5007017;28;20241;-58
2024/01/23 02:31:42;;;;;;;3.17;1.30;;;3.40;99.90;;;;;;5000445;28;20241;-58
2024/01/23 02:34:07;;;;;;;3.40;1.63;;;3.40;99.90;;;;;;5006357;28;20960;-58
2024/01/23 02:36:39;;;;;;;5.53;1.40;;;3.40;99.90;;;;;;5004321;28;20428;-58
2024/01/23 02:39:06;;;;;;;1.70;1.47;;;3.40;99.90;;;;;;5005408;28;20183;-58
2024/01/23 02:41:31;;;;;;;4.40;1.60;;;3.40;99.90;;;;;;5007383;28;20766;-58
2024/01/23 02:43:57;;;;;;;2.37;1.30;;;3.40;99.90;;;;;;5004990;28;20482;-58
2024/01/23 02:46:23;;;;;;;4.77;1.60;;;3.40;99.90;;;;;;5000073;28;20789;-59
2024/01/23 02:48:48;;;;;;;3.77;1.40;;;3.40;99.90;;;;;;5000261;28;20190;-58
2024/01/23 02:51:20;;;;;;;4.77;2.00;;;3.40;99.90;;;;;;5003466;28;20176;-58
2024/01/23 02:53:47;;;;;;;4.43;1.80;;;3.40;99.90;;;;;;5001664;28;20224;-57
2024/01/23 02:56:13;;;;;;;2.90;1.50;;;3.40;99.90;;;;;;5004154;28;20441;-58
2024/01/23 02:58:41;;;;;;;2.90;1.33;;;3.40;99.90;;;;;;5007099;28;20903;-58
2024/01/23 03:01:07;;;;;;;3.53;1.50;;;3.40;99.90;;;;;;5002356;28;20260;-59
2024/01/23 03:03:32;;;;;;;3.63;1.77;;;3.40;99.90;;;;;;5002912;28;20538;-59
2024/01/23 03:05:58;;;;;;;1.83;1.30;;;3.40;99.90;;;;;;5001167;28;20177;-57
2024/01/23 03:08:24;;;;;;;2.37;1.40;;;3.40;99.90;;;;;;5007617;28;20571;-59
2024/01/23 03:10:50;;;;;;;5.47;1.40;;;3.40;99.90;;;;;;5001062;28;20196;-58
2024/01/23 03:13:15;;;;;;;2.37;1.40;;;3.40;99.90;;;;;;5006912;28;20213;-58
2024/01/23 03:15:41;;;;;;;5.30;1.60;;;3.40;99.90;;;;;;5002417;28;20961;-59
2024/01/23 03:18:07;;;;;;;1.50;1.20;;;3.40;99.90;;;;;;5001884;28;21075;-59
2024/01/23 03:20:33;;;;;;;3.37;1.20;;;3.40;99.90;;;;;;5001959;28;20434;-58
2024/01/23 03:22:59;;;;;;;2.90;1.43;;;3.40;99.90;;;;;;5003106;28;20188;-58
2024/01/23 03:25:25;;;;;;;6.10;1.40;;;3.40;99.90;;;;;;5009259;28;20952;-59
2024/01/23 03:27:51;;;;;;;4.37;1.37;;;3.40;99.90;;;;;;5006569;28;20437;-58
2024/01/23 03:30:29;;;;;;;7.27;1.40;;;3.40;99.90;;;;;;5002521;28;20431;-58
2024/01/23 03:32:55;;;;;;;2.23;1.20;;;3.40;99.90;;;;;;5001094;28;20338;-58
2024/01/23 03:35:21;;;;;;;1.50;1.00;;;3.40;99.90;;;;;;5006259;28;21102;-57
2024/01/23 03:37:46;;;;;;;5.17;1.60;;;3.40;99.90;;;;;;5006008;28;20439;-59
2024/01/23 03:40:12;;;;;;;5.70;1.80;;;3.40;99.90;;;;;;5000962;28;20184;-58
2024/01/23 03:42:38;;;;;;;2.60;1.50;;;3.40;99.90;;;;;;5023565;28;20177;-58
2024/01/23 03:45:05;;;;;;;6.50;2.03;;;3.30;99.90;;;;;;5010045;28;20622;-58
2024/01/23 03:47:31;;;;;;;2.20;1.50;;;3.40;99.90;;;;;;5010000;28;21126;-59
2024/01/23 03:49:56;;;;;;;6.23;1.77;;;3.40;99.90;;;;;;5006854;28;20499;-58
2024/01/23 03:52:22;;;;;;;6.13;1.60;;;3.30;99.90;;;;;;5002711;28;20924;-58
2024/01/23 03:54:48;;;;;;;3.70;1.47;;;3.30;99.90;;;;;;5009574;28;20211;-58
2024/01/23 03:57:14;;;;;;;5.67;1.50;;;3.30;99.90;;;;;;5007903;28;20855;-58
2024/01/23 03:59:43;;;;;;;6.80;1.80;;;3.30;99.90;;;;;;5004504;28;20435;-58
2024/01/23 04:02:08;;;;;;;3.93;1.83;;;3.30;99.90;;;;;;5007308;28;20455;-58
2024/01/23 04:04:34;;;;;;;5.30;1.87;;;3.30;99.90;;;;;;5008369;28;20463;-58
2024/01/23 04:07:00;;;;;;;6.83;1.97;;;3.30;99.90;;;;;;5009726;28;20683;-57
2024/01/23 04:09:26;;;;;;;5.23;1.70;;;3.30;99.90;;;;;;5007306;28;20600;-58
2024/01/23 04:11:52;;;;;;;4.00;1.63;;;3.30;99.90;;;;;;5004522;28;20195;-58
2024/01/23 04:14:18;;;;;;;6.73;1.57;;;3.30;99.90;;;;;;5007664;28;20451;-58
2024/01/23 04:16:43;;;;;;;3.00;1.30;;;3.30;99.90;;;;;;5007868;28;20199;-59
2024/01/23 04:19:10;;;;;;;5.60;1.73;;;3.30;99.90;;;;;;5005902;28;20231;-58
2024/01/23 04:21:35;;;;;;;1.33;1.20;;;3.30;99.90;;;;;;5006642;28;20173;-58
2024/01/23 04:24:01;;;;;;;2.40;1.60;;;3.30;99.90;;;;;;5007229;28;20472;-58
2024/01/23 04:26:27;;;;;;;3.07;1.50;;;3.20;99.90;;;;;;5007114;28;20211;-58
2024/01/23 04:28:53;;;;;;;2.60;1.90;;;3.20;99.90;;;;;;5007461;28;20474;-58
2024/01/23 04:31:18;;;;;;;9.13;1.77;;;3.20;99.90;;;;;;5023955;28;20192;-58
2024/01/23 04:33:46;;;;;;;3.93;1.90;;;3.10;99.90;;;;;;5006996;28;20218;-58
2024/01/23 04:36:12;;;;;;;1.63;1.47;;;3.10;99.90;;;;;;5005453;28;20689;-58
2024/01/23 04:38:38;;;;;;;2.70;1.57;;;3.10;99.90;;;;;;5009049;28;20486;-58
2024/01/23 04:41:04;;;;;;;10.97;1.90;;;3.00;99.90;;;;;;4995166;28;20177;-58
2024/01/23 04:43:30;;;;;;;3.93;1.80;;;3.00;99.90;;;;;;5005806;28;20498;-59
2024/01/23 04:45:55;;;;;;;5.20;2.03;;;3.00;99.90;;;;;;5004198;28;20189;-58
2024/01/23 04:48:21;;;;;;;5.77;2.03;;;3.00;99.90;;;;;;5006776;28;20459;-59
2024/01/23 04:50:47;;;;;;;4.10;1.30;;;3.00;99.90;;;;;;5006928;28;20188;-59
2024/01/23 04:53:12;;;;;;;4.03;1.47;;;3.00;99.90;;;;;;5006962;28;20285;-58
2024/01/23 04:55:38;;;;;;;4.47;1.70;;;2.90;99.90;;;;;;5005556;28;20897;-57
2024/01/23 04:58:05;;;;;;;4.23;2.10;;;2.90;99.90;;;;;;5004883;28;20185;-58
2024/01/23 05:00:30;;;;;;;8.00;1.80;;;2.90;99.90;;;;;;5007646;28;20180;-58
2024/01/23 05:02:56;;;;;;;4.17;2.43;;;2.90;99.90;;;;;;4997331;28;20498;-59
2024/01/23 05:05:22;;;;;;;7.53;1.83;;;2.90;99.90;;;;;;5001314;28;20193;-59
2024/01/23 05:07:47;;;;;;;9.83;2.23;;;2.80;99.90;;;;;;4992553;28;20192;-59
2024/01/23 05:10:13;;;;;;;6.33;2.30;;;2.80;99.90;;;;;;4998622;28;20398;-59
2024/01/23 05:12:38;;;;;;;4.20;2.17;;;2.80;99.90;;;;;;4998491;28;20209;-58
2024/01/23 05:15:04;;;;;;;8.90;2.40;;;2.80;99.90;;;;;;5000648;28;20761;-61
2024/01/23 05:17:31;;;;;;;2.40;1.50;;;2.90;99.90;;;;;;5002392;28;20211;-60
2024/01/23 05:19:57;;;;;;;9.90;2.50;;;2.90;99.90;;;;;;5004006;28;20468;-60
2024/01/23 05:22:23;;;;;;;7.47;2.30;;;3.00;99.90;;;;;;5003812;28;20934;-60
2024/01/23 05:24:49;;;;;;;9.13;3.20;;;3.00;99.90;;;;;;5006452;28;20450;-58
2024/01/23 05:27:14;;;;;;;4.60;2.27;;;3.10;99.90;;;;;;5004907;28;20255;-60
2024/01/23 05:29:40;;;;;;;6.03;2.80;;;3.10;99.90;;;;;;4995079;28;20340;-59
2024/01/23 05:32:06;;;;;;;8.10;2.10;;;3.20;99.90;;;;;;5002252;28;20268;-59
2024/01/23 05:34:31;;;;;;;5.73;3.30;;;3.10;99.90;;;;;;5002343;28;20573;-60
2024/01/23 05:36:58;;;;;;;5.47;3.10;;;3.10;99.90;;;;;;4998235;28;20473;-60
2024/01/23 05:39:24;;;;;;;12.27;2.50;;;3.10;99.90;;;;;;4997900;28;20200;-59
2024/01/23 05:41:50;;;;;;;20.80;3.40;;;3.10;99.90;;;;;;4994853;28;20490;-61
2024/01/23 05:44:15;;;;;;;5.67;2.13;;;3.10;99.90;;;;;;4999876;28;20474;-59
2024/01/23 05:46:41;;;;;;;4.13;2.30;;;3.10;99.90;;;;;;5000893;28;20212;-59
2024/01/23 05:49:07;;;;;;;8.10;2.83;;;3.10;99.90;;;;;;5006405;28;20762;-59
2024/01/23 05:51:32;;;;;;;5.23;2.47;;;3.00;99.90;;;;;;4997648;28;20199;-60
2024/01/23 05:53:58;;;;;;;6.40;1.90;;;3.00;99.90;;;;;;4998164;28;20228;-59
2024/01/23 05:56:24;;;;;;;5.63;2.43;;;3.00;99.90;;;;;;4999934;28;20176;-60
2024/01/23 05:58:50;;;;;;;4.60;2.30;;;3.00;99.90;;;;;;4999159;28;20428;-59
2024/01/23 06:01:15;;;;;;;5.57;1.90;;;3.10;99.90;;;;;;5002775;28;20550;-59
2024/01/23 06:03:41;;;;;;;3.47;1.93;;;3.10;99.90;;;;;;4999399;28;20199;-59
2024/01/23 06:06:07;;;;;;;4.83;1.83;;;3.10;99.90;;;;;;4998167;28;20203;-59
2024/01/23 06:08:32;;;;;;;6.60;1.80;;;3.10;99.90;;;;;;4998057;28;20169;-60
2024/01/23 06:10:58;;;;;;;8.07;2.50;;;3.10;99.90;;;;;;4997609;28;20180;-58
2024/01/23 06:13:24;;;;;;;7.67;1.93;;;3.20;99.90;;;;;;5002065;28;20266;-59
2024/01/23 06:15:49;;;;;;;6.90;1.60;;;3.20;99.90;;;;;;4999581;28;20551;-59
2024/01/23 06:18:15;;;;;;;5.20;1.53;;;3.30;99.90;;;;;;4996566;28;20173;-59
2024/01/23 06:20:42;;;;;;;6.20;2.10;;;3.40;99.90;;;;;;4997291;28;20185;-59
2024/01/23 06:23:08;;;;;;;7.60;1.80;;;3.40;99.90;;;;;;5002033;28;20307;-59
2024/01/23 06:25:34;;;;;;;8.40;1.87;;;3.40;99.90;;;;;;5005600;28;21011;-59
2024/01/23 06:27:59;;;;;;;7.17;2.03;;;3.50;99.90;;;;;;5000186;28;20193;-59
2024/01/23 06:30:25;;;;;;;8.67;2.30;;;3.40;99.90;;;;;;5004368;28;20255;-59
2024/01/23 06:32:51;;;;;;;4.93;1.90;;;3.40;99.90;;;;;;5003548;28;20208;-59
2024/01/23 06:35:16;;;;;;;9.93;2.07;;;3.40;99.90;;;;;;5005478;28;20181;-59
2024/01/23 06:37:42;;;;;;;7.30;2.80;;;3.50;99.90;;;;;;5003147;28;20733;-59
2024/01/23 06:40:09;;;;;;;7.60;1.83;;;3.60;99.90;;;;;;5006901;28;20211;-59
2024/01/23 06:42:35;;;;;;;5.60;1.77;;;3.70;99.90;;;;;;5004719;28;20564;-59
2024/01/23 06:45:02;;;;;;;4.20;2.00;;;3.70;99.90;;;;;;5000785;28;21009;-59
2024/01/23 06:47:28;;;;;;;14.50;2.13;;;3.70;99.90;;;;;;4999529;28;20587;-60
2024/01/23 06:49:53;;;;;;;7.83;3.00;;;3.80;99.90;;;;;;5006650;28;20523;-59
2024/01/23 06:52:19;;;;;;;6.30;1.77;;;3.80;99.90;;;;;;5006736;28;20223;-59
2024/01/23 06:54:44;;;;;;;7.73;2.40;;;3.80;99.90;;;;;;5007045;28;20227;-59
2024/01/23 06:57:10;;;;;;;7.00;2.03;;;3.80;99.90;;;;;;5003387;28;20176;-59
2024/01/23 06:59:35;;;;;;;3.50;1.90;;;3.90;99.90;;;;;;5006832;28;20204;-59
2024/01/23 07:02:01;;;;;;;3.43;2.30;;;3.90;99.90;;;;;;5008808;28;20569;-59
2024/01/23 07:04:27;;;;;;;7.10;1.87;;;3.90;99.90;;;;;;5006742;28;20200;-59
2024/01/23 07:06:53;;;;;;;7.80;1.87;;;3.90;99.90;;;;;;5010225;28;20183;-60
2024/01/23 07:09:18;;;;;;;2.30;1.67;;;3.90;99.90;;;;;;5007639;28;20434;-60
2024/01/23 07:11:46;;;;;;;6.00;1.63;;;3.90;99.90;;;;;;5011893;28;20218;-59
2024/01/23 07:14:12;;;;;;;14.47;2.00;;;3.90;99.90;;;;;;5007401;28;20740;-60
2024/01/23 07:16:38;;;;;;;7.77;1.70;;;3.90;99.90;;;;;;5008705;28;20506;-60
2024/01/23 07:19:03;;;;;;;13.77;1.97;;;3.90;99.90;;;;;;5008754;28;20199;-60
2024/01/23 07:21:29;;;;;;;14.63;2.87;;;4.00;99.90;;;;;;5006981;28;20180;-59
2024/01/23 07:23:54;;;;;;;7.40;2.23;;;4.00;99.90;;;;;;5006000;28;20287;-60
2024/01/23 07:26:20;;;;;;;5.77;1.90;;;4.00;99.90;;;;;;5009213;28;20226;-60
2024/01/23 07:28:46;;;;;;;5.87;3.00;;;4.00;99.90;;;;;;5008975;28;20199;-59
2024/01/23 07:31:12;;;;;;;7.57;2.30;;;4.10;99.90;;;;;;5004634;28;20187;-59
2024/01/23 07:33:38;;;;;;;10.83;2.30;;;4.10;99.90;;;;;;5010585;28;20748;-59
2024/01/23 07:36:04;;;;;;;13.90;4.40;;;4.10;99.90;;;;;;5009910;28;20917;-60
2024/01/23 07:38:30;;;;;;;4.00;2.30;;;4.10;99.90;;;;;;5004721;28;20434;-60
2024/01/23 07:40:55;;;;;;;7.33;2.20;;;4.10;99.90;;;;;;5007099;28;20464;-59
2024/01/23 07:43:28;;;;;;;4.47;1.90;;;4.10;99.90;;;;;;5002070;28;21029;-60
2024/01/23 07:45:54;;;;;;;4.77;1.90;;;4.10;99.90;;;;;;5005906;28;20259;-59
2024/01/23 07:48:20;;;;;;;4.07;1.83;;;4.10;99.90;;;;;;5008336;28;20837;-59
2024/01/23 07:50:46;;;;;;;6.10;2.00;;;4.10;99.90;;;;;;5007871;28;20457;-59
2024/01/23 07:53:12;;;;;;;5.70;1.77;;;4.10;99.90;;;;;;5004474;28;20491;-60
2024/01/23 07:55:38;;;;;;;7.20;2.23;;;4.10;99.90;;;;;;5005665;28;20454;-60
2024/01/23 07:58:03;;;;;;;6.30;1.60;;;4.10;99.90;;;;;;5009031;28;20187;-59
2024/01/23 08:00:29;;;;;;;3.77;1.90;;;4.10;99.90;;;;;;5008069;28;20240;-59
2024/01/23 08:02:56;;;;;;;2.93;1.93;;;4.20;99.90;;;;;;5005855;28;20184;-60
2024/01/23 08:05:22;;;;;;;7.63;2.20;;;4.20;99.90;;;;;;5005398;28;20192;-59
2024/01/23 08:07:48;;;;;;;5.60;2.03;;;4.20;99.90;;;;;;5003349;28;20445;-59
2024/01/23 08:10:14;;;;;;;6.77;1.80;;;4.20;99.90;;;;;;5008931;28;20454;-59
2024/01/23 08:12:39;;;;;;;2.30;1.60;;;4.30;99.90;;;;;;5003078;28;20463;-60
2024/01/23 08:15:06;;;;;;;5.17;1.90;;;4.30;99.90;;;;;;5009491;28;20627;-60
2024/01/23 08:17:31;;;;;;;4.40;1.73;;;4.40;99.90;;;;;;5008877;28;20177;-60
2024/01/23 08:19:57;;;;;;;7.07;2.53;;;4.40;99.90;;;;;;5005142;28;20458;-60
2024/01/23 08:22:22;;;;;;;5.03;2.30;;;4.40;99.90;;;;;;5008792;28;20223;-60
2024/01/23 08:24:48;;;;;;;6.07;2.10;;;4.50;99.90;;;;;;5009986;28;20208;-61
2024/01/23 08:27:14;;;;;;;4.63;1.70;;;4.50;99.90;;;;;;5019848;28;20177;-60
2024/01/23 08:29:39;;;;;;;7.20;1.83;;;4.50;99.90;;;;;;5006459;28;20184;-60
2024/01/23 08:32:05;;;;;;;8.40;1.80;;;4.50;99.90;;;;;;5009457;28;20225;-59
2024/01/23 08:34:31;;;;;;;11.63;3.07;;;4.60;99.90;;;;;;5007135;28;20270;-60
2024/01/23 08:36:56;;;;;;;8.77;2.17;;;4.60;99.90;;;;;;5000474;28;20579;-60
2024/01/23 08:39:22;;;;;;;8.77;2.10;;;4.60;99.90;;;;;;5005312;28;20231;-59
2024/01/23 08:41:48;;;;;;;14.80;2.30;;;4.60;99.90;;;;;;5007309;28;20670;-59
2024/01/23 08:44:14;;;;;;;11.43;2.20;;;4.50;99.90;;;;;;5008028;28;20220;-60
2024/01/23 08:46:39;;;;;;;9.47;1.87;;;4.50;99.90;;;;;;5004984;28;20442;-60
2024/01/23 08:49:05;;;;;;;4.50;2.20;;;4.50;99.90;;;;;;5007119;28;20184;-60
2024/01/23 08:51:30;;;;;;;7.17;1.80;;;4.50;99.90;;;;;;5008579;28;20638;-60
2024/01/23 08:53:56;;;;;;;5.00;2.13;;;4.40;99.90;;;;;;5003541;28;20691;-59
2024/01/23 08:56:23;;;;;;;3.83;1.80;;;4.40;99.90;;;;;;5007693;28;20177;-60
2024/01/23 08:58:49;;;;;;;9.50;1.97;;;4.40;99.90;;;;;;5006653;28;20183;-60
2024/01/23 09:01:16;;;;;;;12.47;2.33;;;4.30;99.90;;;;;;5007618;28;20411;-60
2024/01/23 09:03:42;;;;;;;11.67;2.50;;;4.40;99.90;;;;;;5005019;28;20451;-60
2024/01/23 09:06:09;;;;;;;4.97;1.60;;;4.40;99.90;;;;;;5001802;28;20443;-60
2024/01/23 09:08:35;;;;;;;12.30;2.20;;;4.40;99.90;;;;;;5008965;28;20539;-60
2024/01/23 09:11:01;;;;;;;5.13;1.30;;;4.40;99.90;;;;;;5009215;28;20490;-60
2024/01/23 09:13:31;;;;;;;9.70;2.27;;;4.40;99.90;;;;;;5002467;28;21057;-60
2024/01/23 09:15:57;;;;;;;8.70;2.50;;;4.40;99.90;;;;;;5002800;28;20179;-60
2024/01/23 09:18:23;;;;;;;7.93;1.77;;;4.40;99.90;;;;;;5007993;28;20414;-60
2024/01/23 09:20:48;;;;;;;6.07;2.33;;;4.40;99.90;;;;;;5018198;28;20439;-60
2024/01/23 09:23:14;;;;;;;4.00;2.10;;;4.50;99.90;;;;;;5006437;28;20196;-60
2024/01/23 09:25:40;;;;;;;3.60;1.60;;;4.50;99.90;;;;;;5005758;28;20737;-60
2024/01/23 09:28:05;;;;;;;6.70;2.27;;;4.60;99.90;;;;;;5006615;28;20201;-60
2024/01/23 09:30:31;;;;;;;8.73;2.20;;;4.60;99.90;;;;;;5007433;28;20275;-60
2024/01/23 09:32:58;;;;;;;3.90;1.60;;;4.70;99.90;;;;;;5005447;28;20290;-60
2024/01/23 09:35:24;;;;;;;3.23;1.60;;;4.70;99.90;;;;;;5005476;28;20177;-60
2024/01/23 09:37:49;;;;;;;5.90;2.10;;;4.70;99.90;;;;;;4997235;28;20435;-60
2024/01/23 09:40:15;;;;;;;4.70;2.20;;;4.80;99.90;;;;;;5004677;28;20430;-60
2024/01/23 09:42:41;;;;;;;7.77;2.47;;;4.90;99.90;;;;;;5006966;28;20276;-61
2024/01/23 09:45:18;;;;;;;8.50;1.90;;;5.00;99.90;;;;;;5007222;28;20511;-60
2024/01/23 09:47:48;;;;;;;3.97;2.20;;;5.00;99.90;;;;;;4996855;28;20271;-60
2024/01/23 09:50:16;;;;;;;8.80;3.07;;;5.00;99.90;;;;;;5007407;28;20762;-60
2024/01/23 09:52:44;;;;;;;5.33;1.80;;;5.00;99.90;;;;;;5002057;28;20546;-61
2024/01/23 09:55:10;;;;;;;6.30;1.40;;;5.10;99.90;;;;;;5035618;23;20451;-59
2024/01/23 09:57:38;;;;;;;5.73;1.63;;;5.10;99.90;;;;;;5013814;28;20490;-60
2024/01/23 10:00:06;;;;;;;4.30;1.93;;;5.10;99.90;;;;;;5017660;28;20431;-60
2024/01/23 10:02:33;;;;;;;10.90;1.80;;;5.10;99.90;;;;;;5003463;28;20450;-60
2024/01/23 10:04:59;;;;;;;5.40;1.50;;;5.10;99.90;;;;;;5002702;28;21032;-60
2024/01/23 10:07:25;;;;;;;6.50;2.00;;;5.20;99.90;;;;;;5007421;28;20427;-60
2024/01/23 10:09:58;;;;;;;4.83;1.60;;;5.30;99.90;;;;;;5006896;28;20502;-60
2024/01/23 10:12:23;;;;;;;3.50;1.40;;;5.30;99.90;;;;;;5005124;28;20470;-60
2024/01/23 10:14:49;;;;;;;2.10;1.60;;;5.40;99.90;;;;;;5009275;28;20464;-60
2024/01/23 10:17:15;;;;;;;2.40;1.93;;;5.40;99.90;;;;;;5005721;28;20249;-60
2024/01/23 10:19:40;;;;;;;8.33;2.13;;;5.40;99.90;;;;;;5008409;28;20181;-60
2024/01/23 10:22:06;;;;;;;4.37;2.00;;;5.40;99.90;;;;;;5005498;28;20765;-60
2024/01/23 10:24:32;;;;;;;4.37;1.90;;;5.40;99.90;;;;;;5003510;28;20180;-60
2024/01/23 10:26:57;;;;;;;8.87;1.83;;;5.40;99.90;;;;;;5015218;28;20454;-61
2024/01/23 10:29:23;;;;;;;4.77;1.67;;;5.40;99.90;;;;;;5003346;28;20690;-60
2024/01/23 10:31:48;;;;;;;3.40;1.57;;;5.40;99.90;;;;;;5004446;28;20257;-60
2024/01/23 10:34:14;;;;;;;11.67;2.10;;;5.40;99.90;;;;;;5005207;28;20211;-60
2024/01/23 10:36:42;;;;;;;6.17;1.90;;;5.30;99.90;;;;;;5006849;28;20223;-61
2024/01/23 10:39:08;;;;;;;10.73;1.90;;;5.40;99.90;;;;;;5003010;28;20737;-60
2024/01/23 10:41:34;;;;;;;5.53;1.73;;;5.40;99.90;;;;;;5006421;28;20431;-60
2024/01/23 10:44:02;;;;;;;7.70;2.00;;;5.60;99.90;;;;;;5006097;28;20439;-60
2024/01/23 10:46:30;;;;;;;7.73;2.10;;;5.80;99.90;;;;;;5003715;28;20200;-61
2024/01/23 10:48:56;;;;;;;13.73;2.40;;;6.10;99.90;;;;;;5001244;28;20423;-60
2024/01/23 10:51:26;;;;;;;6.13;1.43;;;6.30;99.90;;;;;;5003604;28;20448;-60
2024/01/23 10:54:01;;;;;;;5.13;1.57;;;6.40;99.90;;;;;;5003554;28;20463;-61
2024/01/23 10:56:43;;;;;;;7.07;2.70;;;6.50;99.90;;;;;;5000653;28;20476;-61
2024/01/23 10:59:19;;;;;;;9.43;2.50;;;6.50;99.90;;;;;;4998697;28;21135;-60
2024/01/23 11:01:48;;;;;;;6.73;2.20;;;6.40;99.90;;;;;;4996892;28;20447;-61
2024/01/23 11:04:15;;;;;;;4.10;1.47;;;6.40;99.90;;;;;;5006621;28;20581;-61
2024/01/23 11:07:30;;;;;;;7.60;1.63;;;6.40;99.90;;;;;;4999151;28;21024;-60
2024/01/23 11:10:26;;;;;;;4.97;1.73;;;6.20;99.90;;;;;;4962398;28;20429;-60
2024/01/23 11:13:20;;;;;;;3.70;1.83;;;6.20;99.90;;;;;;5016140;28;20467;-60
2024/01/23 11:15:46;;;;;;;4.17;1.30;;;6.10;99.90;;;;;;5006802;28;20431;-60
2024/01/23 11:18:32;;;;;;;3.53;1.40;;;6.00;99.90;;;;;;5005279;28;20408;-60
2024/01/23 11:21:13;;;;;;;3.73;2.10;;;5.90;99.90;;;;;;5004580;28;20408;-60
2024/01/23 11:23:41;;;;;;;8.57;2.03;;;5.90;99.90;;;;;;4989390;28;20478;-60
2024/01/23 11:26:15;;;;;;;11.30;3.00;;;5.90;99.90;;;;;;5001673;28;20435;-60
2024/01/23 11:28:44;;;;;;;2.93;1.53;;;5.90;99.90;;;;;;5004960;28;20853;-60
2024/01/23 11:31:37;;;;;;;9.70;2.50;;;5.90;99.90;;;;;;5003039;28;20419;-60
2024/01/23 11:34:38;;;;;;;9.63;2.10;;;6.00;99.90;;;;;;4996976;28;20463;-60
2024/01/23 11:37:04;;;;;;;3.90;2.20;;;6.00;99.90;;;;;;4990017;28;20463;-61
2024/01/23 11:39:34;;;;;;;11.60;2.23;;;6.00;99.90;;;;;;5004098;28;20419;-61
2024/01/23 11:42:00;;;;;;;9.33;1.97;;;6.00;99.90;;;;;;4994842;28;20454;-60
2024/01/23 11:44:26;;;;;;;10.23;2.50;;;6.00;99.90;;;;;;5004217;28;20423;-60
2024/01/23 11:46:51;;;;;;;5.27;1.73;;;6.00;99.90;;;;;;5005766;28;20197;-59
2024/01/23 11:49:17;;;;;;;4.57;1.77;;;5.90;99.90;;;;;;5004285;28;20185;-60
2024/01/23 11:51:43;;;;;;;6.50;1.80;;;5.90;99.90;;;;;;5010125;28;20183;-60
2024/01/23 11:54:11;;;;;;;12.00;2.00;;;5.90;99.90;;;;;;5008841;28;20618;-60
2024/01/23 11:56:38;;;;;;;4.30;1.90;;;5.80;99.90;;;;;;5007094;28;20470;-60
2024/01/23 11:59:03;;;;;;;6.57;2.27;;;5.80;99.90;;;;;;5008403;28;20451;-61
2024/01/23 12:01:30;;;;;;;7.03;1.70;;;5.80;99.90;;;;;;5006198;28;20466;-61
2024/01/23 12:03:56;;;;;;;8.27;2.40;;;5.80;99.90;;;;;;5009777;28;20243;-61
2024/01/23 12:06:23;;;;;;;9.87;2.10;;;5.80;99.90;;;;;;5008420;28;20914;-61
2024/01/23 12:08:49;;;;;;;5.67;1.97;;;5.80;99.90;;;;;;5008999;28;20435;-60
2024/01/23 12:11:16;;;;;;;2.87;1.67;;;5.80;99.90;;;;;;5003797;28;20517;-61
2024/01/23 12:13:49;;;;;;;3.83;1.70;;;5.80;99.90;;;;;;5008955;28;20524;-61
2024/01/23 12:16:16;;;;;;;4.27;2.07;;;5.90;99.90;;;;;;5007404;28;20996;-60
2024/01/23 12:18:42;;;;;;;6.53;2.00;;;5.80;99.90;;;;;;5011661;28;20422;-60
2024/01/23 12:21:09;;;;;;;7.93;1.90;;;5.90;99.90;;;;;;5006038;28;20429;-61
2024/01/23 12:23:35;;;;;;;3.43;1.87;;;5.90;99.90;;;;;;5007682;28;20353;-60
2024/01/23 12:26:01;;;;;;;8.50;2.50;;;5.80;99.90;;;;;;5001062;28;20459;-61
2024/01/23 12:28:29;;;;;;;6.80;1.90;;;5.80;99.90;;;;;;4995631;28;21027;-62
2024/01/23 12:30:55;;;;;;;9.00;1.97;;;5.80;99.90;;;;;;4994549;28;20462;-60
2024/01/23 12:33:21;;;;;;;8.07;1.77;;;5.80;99.90;;;;;;5006592;28;21005;-60
2024/01/23 12:35:47;;;;;;;10.63;2.30;;;5.80;99.90;;;;;;5007488;28;20864;-62
2024/01/23 12:38:20;;;;;;;4.60;2.30;;;5.80;99.90;;;;;;5002686;28;20180;-61
2024/01/23 12:40:47;;;;;;;5.97;2.53;;;5.90;99.90;;;;;;5005303;28;20453;-60
2024/01/23 12:43:15;;;;;;;3.47;1.73;;;5.90;99.90;;;;;;5005435;28;20427;-60
2024/01/23 12:45:40;;;;;;;5.17;2.33;;;6.00;99.90;;;;;;4999537;28;20484;-60
2024/01/23 12:48:10;;;;;;;11.43;2.17;;;5.90;99.90;;;;;;5001717;28;20841;-61
2024/01/23 12:50:37;;;;;;;8.53;2.23;;;5.90;99.90;;;;;;5007600;28;20558;-60
2024/01/23 12:53:04;;;;;;;7.37;2.20;;;5.90;99.90;;;;;;5002774;28;20495;-60